Verhnij Baskuncak, Russia
Current Conditions -  °F | °C
As of 9:00 PM on Friday 24 Oct 2014 (Local Time) from URWW Reporting Station
Clear Clear  
Wind Chill: 15°   Ceiling: Unl
Heat Index: 23°   Visibility: 6mi
Dew Point: 14°   Wind: 7mph
Humidity: 68%   Direction: 10°N
Pressure: 30.39"   Gusts: NA
Location:  48.22°N, 46.73°E
Report Text: URWW 241800Z 01003MPS CAVOK M05/M10 Q1029 NOSIG RMK SC070
Loading
Personal Weather Stations






























Interactive Weather Map
Tropical Storm Tracking
New forecast layout! Learn more

10-Day Weather Forecast

Advertisements
Track Severe Weather on mobile